Time,TemperatureF,DewpointF,PressureIn,WindDirection,WindDirectionDegrees,WindSpeedMPH,WindSpeedGustMPH,Humidity,HourlyPrecipIn,Conditions,Clouds,dailyrainin,SoftwareType,DateUTC
2013-10-13 00:00:00,49.2,40.2,30.12,WSW,257,2.0,3.0,71,0.00,,,0.00,Wunderground v.1.15,2013-10-13 05:00:00,
2013-10-13 00:30:00,48.2,40.3,30.13,West,265,3.0,3.0,74,0.00,,,0.00,Wunderground v.1.15,2013-10-13 05:30:00,
2013-10-13 01:00:00,48.2,40.3,30.15,West,273,2.0,2.0,74,0.00,,,0.00,Wunderground v.1.15,2013-10-13 06:00:00,
2013-10-13 01:30:00,47.9,40.4,30.17,WSW,254,3.0,3.0,75,0.00,,,0.00,Wunderground v.1.15,2013-10-13 06:30:00,
2013-10-13 02:00:00,47.7,40.2,30.18,West,267,3.0,3.0,75,0.00,,,0.00,Wunderground v.1.15,2013-10-13 07:00:00,
2013-10-13 02:30:00,47.3,40.1,30.18,WSW,256,3.0,3.0,76,0.00,,,0.00,Wunderground v.1.15,2013-10-13 07:30:00,
2013-10-13 03:00:00,44.9,40.4,30.20,WSW,255,2.0,2.0,84,0.00,,,0.00,Wunderground v.1.15,2013-10-13 08:00:00,
2013-10-13 03:30:00,44.8,40.3,30.20,WSW,255,3.0,3.0,84,0.00,,,0.00,Wunderground v.1.15,2013-10-13 08:30:00,
2013-10-13 04:00:00,44.3,40.4,30.22,WSW,255,4.0,4.0,86,0.00,,,0.00,Wunderground v.1.15,2013-10-13 09:00:00,
2013-10-13 04:30:00,44.9,39.7,30.23,West,268,3.0,3.0,82,0.00,,,0.00,Wunderground v.1.15,2013-10-13 09:30:00,
2013-10-13 05:00:00,44.2,39.4,30.23,WNW,284,4.0,4.0,83,0.00,,,0.00,Wunderground v.1.15,2013-10-13 10:00:00,
2013-10-13 05:30:00,43.6,39.4,30.25,West,279,3.0,3.0,85,0.00,,,0.00,Wunderground v.1.15,2013-10-13 10:30:00,
2013-10-13 06:00:00,42.1,38.8,30.27,West,267,4.0,4.0,88,0.00,,,0.00,Wunderground v.1.15,2013-10-13 11:00:00,
2013-10-13 06:30:00,41.5,38.8,30.28,West,262,2.0,2.0,90,0.00,,,0.00,Wunderground v.1.15,2013-10-13 11:30:00,
2013-10-13 07:00:00,41.1,38.7,30.30,West,262,1.0,1.0,91,0.00,,,0.00,Wunderground v.1.15,2013-10-13 12:00:00,
2013-10-13 07:30:00,40.9,38.8,30.31,WSW,246,1.0,1.0,92,0.00,,,0.00,Wunderground v.1.15,2013-10-13 12:30:00,
2013-10-13 08:00:00,41.2,38.8,30.33,SSW,207,0.0,0.0,91,0.00,,,0.00,Wunderground v.1.15,2013-10-13 13:00:00,
2013-10-13 08:30:00,42.2,38.9,30.34,WSW,254,1.0,1.0,88,0.00,,,0.00,Wunderground v.1.15,2013-10-13 13:30:00,
2013-10-13 09:00:00,44.1,39.6,30.35,SW,214,0.0,0.0,84,0.00,,,0.00,Wunderground v.1.15,2013-10-13 14:00:00,
2013-10-13 09:30:00,45.7,39.9,30.36,NW,318,4.0,4.0,80,0.00,,,0.00,Wunderground v.1.15,2013-10-13 14:30:00,
2013-10-13 10:00:00,47.6,39.7,30.38,West,261,6.0,9.0,74,0.00,,,0.00,Wunderground v.1.15,2013-10-13 15:00:00,
2013-10-13 10:30:00,49.5,39.7,30.38,WNW,288,7.0,7.0,69,0.00,,,0.00,Wunderground v.1.15,2013-10-13 15:30:00,
2013-10-13 11:00:00,51.4,38.4,30.39,West,279,7.0,7.0,61,0.00,,,0.00,Wunderground v.1.15,2013-10-13 16:00:00,
2013-10-13 11:30:00,52.6,35.0,30.40,WNW,296,9.0,9.0,51,0.00,,,0.00,Wunderground v.1.15,2013-10-13 16:30:00,
2013-10-13 12:00:00,54.2,33.9,30.40,NW,309,7.0,11.0,46,0.00,,,0.00,Wunderground v.1.15,2013-10-13 17:00:00,
2013-10-13 12:30:00,54.7,33.2,30.39,West,275,9.0,9.0,44,0.00,,,0.00,Wunderground v.1.15,2013-10-13 17:30:00,
2013-10-13 13:00:00,54.8,32.7,30.38,North,355,7.0,7.0,43,0.00,,,0.00,Wunderground v.1.15,2013-10-13 18:00:00,
2013-10-13 13:30:00,55.6,32.8,30.38,North,355,6.0,6.0,42,0.00,,,0.00,Wunderground v.1.15,2013-10-13 18:30:00,
2013-10-13 14:00:00,56.3,31.0,30.36,ENE,70,6.0,6.0,38,0.00,,,0.00,Wunderground v.1.15,2013-10-13 19:00:00,
2013-10-13 14:30:00,57.0,30.3,30.35,WNW,293,4.0,5.0,36,0.00,,,0.00,Wunderground v.1.15,2013-10-13 19:30:00,
2013-10-13 15:00:00,57.3,31.9,30.35,NNW,333,4.0,4.0,38,0.00,,,0.00,Wunderground v.1.15,2013-10-13 20:00:00,
2013-10-13 15:30:00,58.3,31.4,30.35,WNW,300,2.0,5.0,36,0.00,,,0.00,Wunderground v.1.15,2013-10-13 20:30:00,
2013-10-13 16:00:00,58.6,29.6,30.34,NW,324,4.0,4.0,33,0.00,,,0.00,Wunderground v.1.15,2013-10-13 21:00:00,
2013-10-13 16:30:00,58.1,30.6,30.34,NW,318,3.0,4.0,35,0.00,,,0.00,Wunderground v.1.15,2013-10-13 21:30:00,
2013-10-13 17:00:00,58.7,30.4,30.34,West,263,5.0,5.0,34,0.00,,,0.00,Wunderground v.1.15,2013-10-13 22:00:00,
2013-10-13 17:30:00,58.4,30.8,30.35,West,273,4.0,4.0,35,0.00,,,0.00,Wunderground v.1.15,2013-10-13 22:30:00,
2013-10-13 18:00:00,58.3,30.7,30.35,West,268,3.0,3.0,35,0.00,,,0.00,Wunderground v.1.15,2013-10-13 23:00:00,
2013-10-13 18:30:00,57.0,31.0,30.35,West,261,2.0,2.0,37,0.00,,,0.00,Wunderground v.1.15,2013-10-13 23:30:00,
2013-10-13 19:00:00,54.8,33.8,30.36,West,261,1.0,1.0,45,0.00,,,0.00,Wunderground v.1.15,2013-10-14 00:00:00,
2013-10-13 19:30:00,52.5,34.9,30.37,West,261,0.0,0.0,51,0.00,,,0.00,Wunderground v.1.15,2013-10-14 00:30:00,
2013-10-13 20:00:00,50.4,34.8,30.37,West,261,0.0,0.0,55,0.00,,,0.00,Wunderground v.1.15,2013-10-14 01:00:00,
2013-10-13 20:30:00,48.5,36.5,30.37,West,261,0.0,0.0,63,0.00,,,0.00,Wunderground v.1.15,2013-10-14 01:30:00,
2013-10-13 21:00:00,47.4,35.8,30.37,West,261,0.0,0.0,64,0.00,,,0.00,Wunderground v.1.15,2013-10-14 02:00:00,
2013-10-13 21:30:00,46.4,36.4,30.38,West,261,0.0,0.0,68,0.00,,,0.00,Wunderground v.1.15,2013-10-14 02:30:00,
2013-10-13 22:00:00,45.1,35.9,30.38,West,261,0.0,0.0,70,0.00,,,0.00,Wunderground v.1.15,2013-10-14 03:00:00,
2013-10-13 22:30:00,43.6,35.9,30.38,WSW,248,0.0,0.0,74,0.00,,,0.00,Wunderground v.1.15,2013-10-14 03:30:00,
2013-10-13 23:00:00,43.1,35.7,30.39,SW,217,1.0,1.0,75,0.00,,,0.00,Wunderground v.1.15,2013-10-14 04:00:00,
2013-10-13 23:30:00,41.1,36.0,30.39,SW,217,0.0,1.0,82,0.00,,,0.00,Wunderground v.1.15,2013-10-14 04:30:00,